createdAt,value
2022-08-19T00:00:28.885Z,5.35
2022-08-19T00:02:57.938Z,5.82
2022-08-19T00:05:30.248Z,4.55
2022-08-19T00:07:57.065Z,5.03
2022-08-19T00:10:29.448Z,4.88
2022-08-19T00:12:58.456Z,6.45
2022-08-19T00:15:29.432Z,6.35
2022-08-19T00:17:58.888Z,6.18
2022-08-19T00:20:29.288Z,5.68
2022-08-19T00:22:58.856Z,5.85
2022-08-19T00:25:30.536Z,5.18
2022-08-19T00:27:57.928Z,5.70
2022-08-19T00:30:30.400Z,5.22
2022-08-19T00:33:00.136Z,5.80
2022-08-19T00:35:33.293Z,5.15
2022-08-19T00:38:03.227Z,5.30
2022-08-19T00:40:32.698Z,5.78
2022-08-19T00:42:59.651Z,6.03
2022-08-19T00:45:32.784Z,6.45
2022-08-19T00:48:15.064Z,4.85
2022-08-19T00:50:51.628Z,6.35
2022-08-19T00:53:23.734Z,5.30
2022-08-19T00:55:52.493Z,5.90
2022-08-19T00:58:23.627Z,5.75
2022-08-19T01:00:50.737Z,6.18
2022-08-19T01:03:21.739Z,5.88
2022-08-19T01:05:52.740Z,5.10
2022-08-19T01:08:20.292Z,6.00
2022-08-19T01:10:51.826Z,5.95
2022-08-19T01:13:21.988Z,4.63
2022-08-19T01:15:54.946Z,5.57
2022-08-19T01:18:22.035Z,6.00
2022-08-19T01:20:49.285Z,4.25
2022-08-19T01:23:16.828Z,5.03
2022-08-19T01:25:48.588Z,5.40
2022-08-19T01:28:33.656Z,6.38
2022-08-19T01:31:08.013Z,5.25
2022-08-19T01:33:38.051Z,5.85
2022-08-19T01:36:25.291Z,5.38
2022-08-19T01:38:55.057Z,5.38
2022-08-19T01:41:24.686Z,6.30
2022-08-19T01:44:12.347Z,5.80
2022-08-19T01:46:44.811Z,5.40
2022-08-19T01:49:16.941Z,5.60
2022-08-19T01:51:49.320Z,5.60
2022-08-19T01:54:23.066Z,5.50
2022-08-19T01:56:59.262Z,6.30
2022-08-19T01:59:26.262Z,5.30
2022-08-19T02:01:58.211Z,6.15
2022-08-19T02:04:28.391Z,4.80
2022-08-19T02:06:59.061Z,6.05
2022-08-19T02:09:25.826Z,4.80
2022-08-19T02:11:58.462Z,5.55
2022-08-19T02:14:31.405Z,5.40
2022-08-19T02:17:01.852Z,4.70
2022-08-19T02:19:33.828Z,5.60
2022-08-19T02:22:03.619Z,5.68
2022-08-19T02:24:33.520Z,6.47
2022-08-19T02:27:03.361Z,6.43
2022-08-19T02:29:30.219Z,6.10
2022-08-19T02:32:00.747Z,6.55
2022-08-19T02:34:30.399Z,5.47
2022-08-19T02:37:03.450Z,6.32
2022-08-19T02:39:33.201Z,6.68
2022-08-19T02:42:00.850Z,5.88
2022-08-19T02:44:31.276Z,6.43
2022-08-19T02:47:01.908Z,5.88
2022-08-19T02:49:35.381Z,5.85
2022-08-19T02:52:08.181Z,5.45
2022-08-19T02:54:37.501Z,5.47
2022-08-19T02:57:17.969Z,5.97
2022-08-19T02:59:47.147Z,5.45
2022-08-19T03:02:17.501Z,5.43
2022-08-19T03:04:48.858Z,4.63
2022-08-19T03:07:19.616Z,5.53
2022-08-19T03:09:46.617Z,5.68
2022-08-19T03:12:14.041Z,6.28
2022-08-19T03:14:43.746Z,4.80
2022-08-19T03:17:14.146Z,5.30
2022-08-19T03:19:46.285Z,5.38
2022-08-19T03:22:15.573Z,5.32
2022-08-19T03:24:42.457Z,5.65
2022-08-19T03:27:13.640Z,5.25
2022-08-19T03:29:44.079Z,5.90
2022-08-19T03:32:27.909Z,5.25
2022-08-19T03:35:03.805Z,5.47
2022-08-19T03:37:36.858Z,5.13
2022-08-19T03:40:06.742Z,5.35
2022-08-19T03:42:48.564Z,5.82
2022-08-19T03:45:16.473Z,5.75
2022-08-19T03:47:43.297Z,5.30
2022-08-19T03:50:10.345Z,4.82
2022-08-19T03:52:40.561Z,4.88
2022-08-19T03:55:14.795Z,5.10
2022-08-19T03:57:46.315Z,5.88
2022-08-19T04:00:19.133Z,4.60
2022-08-19T04:03:00.269Z,5.20
2022-08-19T04:05:29.732Z,5.35
2022-08-19T04:08:02.318Z,5.38
2022-08-19T04:10:34.393Z,4.90
2022-08-19T04:13:06.604Z,5.22
2022-08-19T04:15:43.668Z,5.25
2022-08-19T04:18:11.346Z,6.32
2022-08-19T04:20:47.308Z,5.38
2022-08-19T04:23:16.371Z,6.00
2022-08-19T04:25:44.114Z,6.47
2022-08-19T04:28:12.155Z,5.68
2022-08-19T04:30:52.051Z,6.93
2022-08-19T04:33:26.506Z,4.43
2022-08-19T04:35:58.678Z,6.15
2022-08-19T04:38:27.899Z,6.07
2022-08-19T04:41:13.201Z,6.13
2022-08-19T04:43:49.776Z,6.30
2022-08-19T04:46:39.030Z,6.65
2022-08-19T04:49:13.197Z,5.97
2022-08-19T04:51:42.770Z,5.10
2022-08-19T04:54:09.734Z,5.22
2022-08-19T04:56:39.659Z,5.65
2022-08-19T04:59:06.362Z,5.82
2022-08-19T05:01:37.589Z,4.60
2022-08-19T05:04:07.760Z,5.40
2022-08-19T05:06:35.034Z,5.63
2022-08-19T05:09:05.243Z,6.18
2022-08-19T05:11:35.519Z,4.40
2022-08-19T05:14:02.725Z,5.05
2022-08-19T05:16:32.058Z,4.88
2022-08-19T05:19:17.392Z,4.00
2022-08-19T05:22:06.518Z,4.95
2022-08-19T05:24:44.043Z,5.07
2022-08-19T05:27:20.560Z,5.68
2022-08-19T05:29:52.767Z,4.60
2022-08-19T05:32:19.432Z,4.78
2022-08-19T05:34:48.883Z,4.45
2022-08-19T05:37:16.395Z,6.13
2022-08-19T05:39:43.432Z,5.80
2022-08-19T05:42:15.532Z,5.40
2022-08-19T05:44:50.261Z,5.35
2022-08-19T05:47:21.181Z,5.95
2022-08-19T05:49:48.682Z,5.68
2022-08-19T05:52:18.894Z,5.57
2022-08-19T05:54:51.247Z,5.50
2022-08-19T05:57:19.502Z,5.10
2022-08-19T05:59:53.131Z,4.80
2022-08-19T06:02:30.627Z,4.82
2022-08-19T06:05:00.250Z,4.88
2022-08-19T06:07:30.260Z,4.88
2022-08-19T06:10:00.000Z,4.72
2022-08-19T06:12:35.335Z,6.07
2022-08-19T06:15:06.445Z,5.15
2022-08-19T06:17:35.945Z,5.90
2022-08-19T06:20:08.729Z,4.80
2022-08-19T06:22:46.265Z,4.65
2022-08-19T06:25:15.753Z,5.53
2022-08-19T06:30:35.486Z,6.13
2022-08-19T06:33:07.853Z,5.80
2022-08-19T06:35:39.741Z,5.07
2022-08-19T06:38:06.732Z,5.18
2022-08-19T06:40:37.491Z,6.68
2022-08-19T06:43:08.625Z,5.63
2022-08-19T06:45:41.901Z,5.90
2022-08-19T06:48:08.805Z,6.82
2022-08-19T06:50:44.815Z,6.28
2022-08-19T06:53:14.257Z,5.68
2022-08-19T06:55:42.263Z,5.72
2022-08-19T06:58:12.016Z,6.47
2022-08-19T07:00:41.765Z,5.35
2022-08-19T07:03:13.311Z,5.80
2022-08-19T07:05:47.238Z,6.68
2022-08-19T07:08:18.431Z,5.22
2022-08-19T07:10:51.128Z,7.07
2022-08-19T07:13:17.933Z,6.85
2022-08-19T07:15:51.027Z,6.85
2022-08-19T07:18:23.183Z,7.30
2022-08-19T07:20:53.168Z,6.35
2022-08-19T07:23:22.667Z,6.07
2022-08-19T07:25:53.375Z,6.18
2022-08-19T07:28:24.259Z,7.10
2022-08-19T07:30:57.246Z,7.47
2022-08-19T07:33:28.046Z,5.80
2022-08-19T07:36:00.817Z,6.30
2022-08-19T07:38:29.954Z,6.97
2022-08-19T07:41:00.054Z,6.68
2022-08-19T07:43:34.936Z,9.05
2022-08-19T07:46:04.846Z,5.20
2022-08-19T07:48:32.358Z,5.70
2022-08-19T07:51:02.874Z,7.97
2022-08-19T07:53:39.690Z,7.28
2022-08-19T07:56:12.726Z,6.78
2022-08-19T07:58:40.773Z,6.07
2022-08-19T08:01:08.456Z,6.35
2022-08-19T08:03:54.055Z,8.95
2022-08-19T08:06:43.207Z,5.35
2022-08-19T08:09:16.677Z,6.55
2022-08-19T08:11:50.851Z,7.22
2022-08-19T08:14:28.996Z,7.97
2022-08-19T08:16:59.476Z,7.68
2022-08-19T08:19:31.577Z,7.63
2022-08-19T08:21:59.471Z,8.10
2022-08-19T08:24:32.155Z,6.80
2022-08-19T08:27:03.320Z,7.38
2022-08-19T08:29:43.167Z,6.18
2022-08-19T08:32:14.051Z,8.68
2022-08-19T08:34:47.444Z,8.05
2022-08-19T08:37:24.167Z,4.80
2022-08-19T08:39:53.854Z,8.38
2022-08-19T08:42:27.615Z,7.80
2022-08-19T08:45:12.887Z,7.03
2022-08-19T08:47:57.320Z,6.35
2022-08-19T08:50:37.358Z,8.32
2022-08-19T08:53:09.624Z,9.35
2022-08-19T08:55:41.783Z,9.05
2022-08-19T08:58:29.522Z,5.70
2022-08-19T09:00:56.536Z,9.50
2022-08-19T09:03:28.092Z,8.80
2022-08-19T09:06:03.705Z,9.55
2022-08-19T09:08:51.600Z,10.02
2022-08-19T09:11:42.693Z,6.72
2022-08-19T09:14:49.213Z,6.32
2022-08-19T09:17:14.439Z,7.93
2022-08-19T09:19:52.429Z,7.25
2022-08-19T09:22:26.000Z,9.43
2022-08-19T09:24:57.507Z,9.23
2022-08-19T09:27:43.000Z,8.20
2022-08-19T09:30:15.900Z,8.65
2022-08-19T09:32:52.857Z,8.60
2022-08-19T09:35:23.705Z,6.50
2022-08-19T09:37:52.366Z,9.10
2022-08-19T09:40:25.121Z,8.27
2022-08-19T09:42:54.750Z,8.00
2022-08-19T09:45:23.189Z,8.38
2022-08-19T09:47:54.945Z,10.50
2022-08-19T09:50:27.021Z,8.75
2022-08-19T09:52:57.343Z,10.15
2022-08-19T09:55:31.850Z,7.20
2022-08-19T09:58:05.198Z,7.43
2022-08-19T10:00:32.632Z,7.78
2022-08-19T10:02:59.710Z,7.10
2022-08-19T10:05:48.389Z,9.52
2022-08-19T10:08:20.690Z,8.35
2022-08-19T10:10:48.457Z,6.93
2022-08-19T10:13:16.640Z,9.00
2022-08-19T10:15:47.961Z,8.18
2022-08-19T10:18:19.559Z,6.35
2022-08-19T10:20:55.724Z,8.57
2022-08-19T10:23:26.037Z,7.70
2022-08-19T10:25:54.789Z,6.60
2022-08-19T10:28:25.232Z,7.28
2022-08-19T10:30:55.482Z,7.70
2022-08-19T10:33:38.599Z,6.75
2022-08-19T10:36:16.697Z,7.80
2022-08-19T10:38:54.802Z,7.32
2022-08-19T10:41:29.332Z,7.30
2022-08-19T10:44:04.386Z,7.18
2022-08-19T10:46:34.751Z,5.40
2022-08-19T10:49:06.110Z,5.53
2022-08-19T10:51:55.035Z,6.43
2022-08-19T10:54:31.410Z,6.93
2022-08-19T10:57:02.324Z,5.43
2022-08-19T10:59:35.269Z,7.45
2022-08-19T11:02:06.981Z,5.65
2022-08-19T11:04:34.511Z,5.82
2022-08-19T11:07:06.201Z,5.65
2022-08-19T11:09:37.228Z,5.10
2022-08-19T11:12:04.969Z,5.97
2022-08-19T11:14:38.901Z,6.20
2022-08-19T11:17:06.461Z,5.38
2022-08-19T11:19:35.711Z,6.63
2022-08-19T11:22:04.905Z,5.63
2022-08-19T11:24:31.849Z,5.53
2022-08-19T11:27:04.986Z,6.15
2022-08-19T11:29:35.488Z,6.10
2022-08-19T11:32:07.910Z,7.32
2022-08-19T11:34:38.523Z,7.32
2022-08-19T11:37:07.008Z,5.53
2022-08-19T11:39:38.725Z,5.40
2022-08-19T11:42:27.850Z,4.68
2022-08-19T11:44:54.949Z,4.18
2022-08-19T11:47:22.636Z,4.07
2022-08-19T11:49:49.797Z,3.28
2022-08-19T11:52:19.276Z,2.90
2022-08-19T11:54:52.146Z,3.13
2022-08-19T11:57:20.921Z,2.80
2022-08-19T11:59:51.758Z,3.08
2022-08-19T12:02:22.777Z,2.60
2022-08-19T12:04:55.976Z,2.80
2022-08-19T12:07:26.184Z,2.88
2022-08-19T12:09:55.880Z,2.60
2022-08-19T12:12:25.956Z,2.38
2022-08-19T12:14:58.076Z,2.58
2022-08-19T12:17:28.520Z,2.33
2022-08-19T12:19:57.525Z,2.70
2022-08-19T12:22:24.400Z,2.20
2022-08-19T12:24:55.158Z,2.35
2022-08-19T12:27:32.374Z,2.13
2022-08-19T12:30:08.579Z,2.70
2022-08-19T12:32:38.882Z,2.58
2022-08-19T12:35:09.480Z,3.08
2022-08-19T12:37:42.046Z,2.40
2022-08-19T12:40:09.846Z,2.65
2022-08-19T12:42:43.680Z,2.67
2022-08-19T12:45:14.350Z,2.03
2022-08-19T12:47:46.145Z,2.83
2022-08-19T12:50:14.532Z,3.10
2022-08-19T12:52:47.041Z,2.85
2022-08-19T12:55:13.948Z,2.88
2022-08-19T12:57:43.740Z,3.33
2022-08-19T13:00:14.862Z,2.90
2022-08-19T13:02:45.880Z,3.30
2022-08-19T13:05:14.762Z,3.05
2022-08-19T13:07:45.077Z,2.67
2022-08-19T13:10:13.749Z,2.35
2022-08-19T13:12:43.641Z,2.85
2022-08-19T13:15:23.007Z,3.70
2022-08-19T13:17:54.257Z,3.22
2022-08-19T13:20:24.205Z,3.05
2022-08-19T13:22:54.401Z,3.13
2022-08-19T13:25:24.107Z,2.90
2022-08-19T13:27:56.308Z,3.08
2022-08-19T13:30:44.151Z,3.70
2022-08-19T13:33:17.531Z,2.78
2022-08-19T13:35:54.001Z,2.78
2022-08-19T13:38:24.163Z,2.97
2022-08-19T13:40:57.548Z,3.20
2022-08-19T13:43:26.924Z,3.65
2022-08-19T13:45:59.436Z,2.50
2022-08-19T13:48:30.164Z,2.72
2022-08-19T13:51:02.556Z,2.80
2022-08-19T13:53:35.028Z,2.55
2022-08-19T13:56:08.516Z,2.92
2022-08-19T13:58:38.356Z,3.10
2022-08-19T14:01:10.980Z,2.83
2022-08-19T14:03:38.117Z,3.08
2022-08-19T14:06:10.353Z,3.80
2022-08-19T14:08:46.220Z,3.30
2022-08-19T14:11:16.568Z,3.17
2022-08-19T14:13:46.362Z,3.45
2022-08-19T14:16:17.317Z,2.75
2022-08-19T14:18:45.046Z,3.58
2022-08-19T14:21:21.283Z,3.53
2022-08-19T14:23:51.434Z,3.17
2022-08-19T14:26:24.943Z,3.47
2022-08-19T14:28:58.931Z,2.90
2022-08-19T14:31:30.746Z,3.50
2022-08-19T14:34:03.450Z,3.58
2022-08-19T14:36:39.155Z,3.30
2022-08-19T14:39:10.756Z,3.15
2022-08-19T14:41:44.519Z,3.65
2022-08-19T14:44:13.962Z,2.72
2022-08-19T14:46:49.390Z,3.10
2022-08-19T14:49:22.044Z,3.15
2022-08-19T14:52:04.489Z,2.80
2022-08-19T14:54:31.230Z,2.72
2022-08-19T14:57:00.560Z,3.13
2022-08-19T14:59:33.140Z,2.88
2022-08-19T15:02:33.877Z,3.20
2022-08-19T15:04:58.970Z,3.17
2022-08-19T15:07:29.041Z,3.05
2022-08-19T15:09:56.975Z,2.88
2022-08-19T15:12:27.155Z,3.40
2022-08-19T15:14:57.131Z,3.28
2022-08-19T15:17:43.389Z,3.03
2022-08-19T15:20:18.732Z,3.13
2022-08-19T15:22:48.465Z,3.42
2022-08-19T15:25:17.440Z,3.28
2022-08-19T15:27:49.379Z,2.85
2022-08-19T15:30:20.643Z,3.35
2022-08-19T15:32:51.017Z,2.72
2022-08-19T15:35:19.605Z,2.88
2022-08-19T15:37:51.960Z,2.80
2022-08-19T15:40:21.572Z,2.83
2022-08-19T15:42:51.492Z,3.13
2022-08-19T15:45:19.123Z,2.78
2022-08-19T15:47:46.088Z,2.65
2022-08-19T15:50:26.803Z,3.13
2022-08-19T15:52:58.723Z,3.40
2022-08-19T15:55:34.225Z,3.30
2022-08-19T15:58:28.345Z,2.83
2022-08-19T16:01:20.911Z,3.28
2022-08-19T16:04:14.922Z,2.88
2022-08-19T16:06:46.291Z,3.03
2022-08-19T16:09:13.608Z,3.22
2022-08-19T16:11:46.296Z,2.95
2022-08-19T16:14:22.244Z,2.95
2022-08-19T16:16:57.527Z,3.17
2022-08-19T16:19:26.994Z,2.90
2022-08-19T16:21:58.713Z,2.67
2022-08-19T16:24:31.486Z,3.13
2022-08-19T16:27:01.747Z,3.08
2022-08-19T16:29:39.407Z,3.42
2022-08-19T16:32:16.488Z,3.05
2022-08-19T16:34:46.726Z,3.05
2022-08-19T16:37:18.828Z,2.97
2022-08-19T16:39:47.723Z,3.00
2022-08-19T16:42:15.072Z,3.08
2022-08-19T16:44:46.143Z,3.30
2022-08-19T16:47:14.422Z,3.20
2022-08-19T16:49:54.191Z,2.92
2022-08-19T16:52:26.659Z,2.90
2022-08-19T16:54:53.739Z,2.72
2022-08-19T16:57:24.001Z,2.47
2022-08-19T16:59:52.598Z,3.25
2022-08-19T17:02:22.873Z,3.30
2022-08-19T17:04:57.302Z,3.22
2022-08-19T17:07:32.146Z,3.20
2022-08-19T17:10:02.713Z,3.47
2022-08-19T17:12:32.546Z,2.92
2022-08-19T17:15:03.030Z,3.00
2022-08-19T17:17:30.529Z,2.92
2022-08-19T17:20:03.160Z,3.35
2022-08-19T17:22:32.307Z,3.05
2022-08-19T17:25:05.282Z,2.78
2022-08-19T17:27:32.588Z,2.80
2022-08-19T17:30:02.894Z,2.72
2022-08-19T17:32:30.232Z,3.70
2022-08-19T17:34:59.733Z,3.35
2022-08-19T17:37:29.890Z,2.78
2022-08-19T17:39:59.465Z,2.75
2022-08-19T17:42:26.757Z,2.88
2022-08-19T17:44:53.560Z,2.58
2022-08-19T17:47:23.606Z,2.40
2022-08-19T17:49:53.696Z,2.70
2022-08-19T17:52:23.326Z,1.95
2022-08-19T17:54:52.419Z,2.10
2022-08-19T17:57:19.171Z,2.28
2022-08-19T17:59:46.291Z,2.03
2022-08-19T18:02:15.959Z,2.10
2022-08-19T18:04:51.345Z,2.35
2022-08-19T18:07:21.696Z,2.30
2022-08-19T18:09:52.752Z,2.05
2022-08-19T18:12:28.835Z,1.67
2022-08-19T18:14:55.555Z,2.10
2022-08-19T18:17:23.884Z,2.00
2022-08-19T18:19:56.275Z,2.22
2022-08-19T18:22:26.112Z,1.73
2022-08-19T18:24:53.311Z,2.00
